Wrangell, AK

5:02 PM AKDT on October 31, 2014 (GMT -0800)
Wrangell | Change Station
CLOSE
Current Station
Airport
Location: Wrangell,
Elevation: 43 ft
Nearby Weather Stations

Elev 43 ft 56.48 °N, 132.37 °W | Updated 6 minutes ago

Overcast
Overcast
43 °F
Feels Like 37 °F
N
12
Wind Variable Wind from ESE
Gusts 20 mph

Today
High -- | Low -- °F
--% Chance of Precip.
Yesterday
High -- | Low -- °F
Precip. -- in
7:56 AM 5:09 PM
First Quarter, 60% visible
Pressure 29.65 in
Visibility 7.0 miles
Clouds Few 2800 ft
Mostly Cloudy 4000 ft
Overcast 5000 ft
Windchill 37 °F
Dew Point 36 °F
Humidity 76%
Rainfall 0.23 in
Snow Depth Not available.
UV 0 out of 12
Pollen Not available.
Air Quality Not available.
Flu Activity Not available.
METAR PAWG 010056Z 12010G17KT 7SM FEW028 BKN040 OVC050 06/02 A2965 RMK AO1 WEA: -RA (MCQ) P0002

More Conditions Fewer Conditions

Pressure 29.65 in
Visibility 7.0 miles
Clouds Few 2800 ft
Mostly Cloudy 4000 ft
Overcast 5000 ft
Windchill 37 °F
Dew Point 36 °F
Humidity 76%
Rainfall 0.23 in
Snow Depth Not available.
UV 0 out of 12
Pollen Not available.
Air Quality Not available.
Flu Activity Not available.
METAR PAWG 010056Z 12010G17KT 7SM FEW028 BKN040 OVC050 06/02 A2965 RMK AO1 WEA: -RA (MCQ) P0002

More Conditions Fewer Conditions

10-Day Weather Forecast

Almanac

Astronomy

Oct. 31, 2014 Rise Set
Actual Time
Civil Twilight
Nautical Twilight
Astronomical Twilight
Moon
Length of Visible Light
Length of Day
Tomorrow will be .
, % of the Moon is Illuminated

Today's Extremes

State Highs State Lows

Community

WunderPhotos

Upload Photos

1,766,798 photos uploaded!

WunderBlogs® & News

Nearby

Air Quality

  Air Quality AQ Index Pollutant
Not available.

Snow Depth

Station Depth Elevation

Earthquake Activity

City Distance Mag. Time & Date
Minimum magnitude displayed is 2.5.

Coastal Water Temperatures

Place Temperature

Nearby Weather Stations